createdAt,value
2018-04-06T00:01:27.126Z,102321.86
2018-04-06T00:03:55.040Z,102319.97
2018-04-06T00:06:21.877Z,102323.02
2018-04-06T00:08:48.835Z,102318.45
2018-04-06T00:11:15.777Z,102321.84
2018-04-06T00:13:43.648Z,102320.46
2018-04-06T00:16:10.553Z,102322.23
2018-04-06T00:18:37.409Z,102326.89
2018-04-06T00:21:04.606Z,102326.70
2018-04-06T00:23:31.618Z,102329.59
2018-04-06T00:25:59.256Z,102325.81
2018-04-06T00:28:26.905Z,102329.43
2018-04-06T00:30:54.205Z,102323.33
2018-04-06T00:33:21.108Z,102322.11
2018-04-06T00:35:50.400Z,102323.81
2018-04-06T00:38:17.351Z,102320.60
2018-04-06T00:40:44.306Z,102325.14
2018-04-06T00:43:12.685Z,102326.86
2018-04-06T00:45:39.601Z,102321.80
2018-04-06T00:48:06.488Z,102324.58
2018-04-06T00:50:33.404Z,102315.22
2018-04-06T00:53:00.389Z,102300.17
2018-04-06T00:55:28.352Z,102310.41
2018-04-06T00:57:55.139Z,102294.96
2018-04-06T01:00:22.732Z,102232.65
2018-04-06T01:02:49.644Z,102302.23
2018-04-06T01:05:17.386Z,102306.70
2018-04-06T01:07:44.468Z,102297.46
2018-04-06T01:10:12.645Z,102304.45
2018-04-06T01:12:41.102Z,102300.78
2018-04-06T01:15:08.056Z,102299.06
2018-04-06T01:17:34.910Z,102298.61
2018-04-06T01:20:02.581Z,102299.12
2018-04-06T01:22:29.538Z,102296.52
2018-04-06T01:24:57.806Z,102291.67
2018-04-06T01:27:24.702Z,102294.50
2018-04-06T01:29:51.606Z,102297.00
2018-04-06T01:32:19.298Z,102298.16
2018-04-06T01:34:47.350Z,102288.58
2018-04-06T01:37:14.308Z,102295.33
2018-04-06T01:39:41.191Z,102285.27
2018-04-06T01:42:08.033Z,102280.44
2018-04-06T01:44:35.254Z,102282.27
2018-04-06T01:47:02.935Z,102279.42
2018-04-06T01:49:30.788Z,102281.74
2018-04-06T01:51:57.738Z,102281.08
2018-04-06T01:54:24.725Z,102269.77
2018-04-06T01:56:52.665Z,102274.59
2018-04-06T01:59:19.728Z,102275.87
2018-04-06T02:01:47.504Z,102276.91
2018-04-06T02:04:15.925Z,102278.50
2018-04-06T02:06:43.217Z,102282.09
2018-04-06T02:09:10.119Z,102272.09
2018-04-06T02:11:37.022Z,102277.83
2018-04-06T02:14:04.588Z,102276.55
2018-04-06T02:16:31.909Z,102274.79
2018-04-06T02:18:59.457Z,102262.90
2018-04-06T02:21:26.464Z,102264.97
2018-04-06T02:23:53.412Z,102269.22
2018-04-06T02:26:23.017Z,102271.64
2018-04-06T02:28:49.982Z,102266.23
2018-04-06T02:31:17.128Z,102255.64
2018-04-06T02:33:44.051Z,102263.00
2018-04-06T02:36:11.750Z,102259.17
2018-04-06T02:38:38.928Z,102263.16
2018-04-06T02:41:05.936Z,102265.13
2018-04-06T02:43:32.932Z,102268.27
2018-04-06T02:46:01.280Z,102271.63
2018-04-06T02:48:28.608Z,102268.07
2018-04-06T02:50:55.442Z,102275.64
2018-04-06T02:53:23.026Z,102275.88
2018-04-06T02:55:50.104Z,102270.63
2018-04-06T02:58:18.181Z,102191.39
2018-04-06T03:00:44.945Z,102267.98
2018-04-06T03:03:12.098Z,102268.92
2018-04-06T03:05:39.035Z,102262.80
2018-04-06T03:08:05.936Z,102259.57
2018-04-06T03:10:33.954Z,102265.56
2018-04-06T03:13:00.808Z,102258.86
2018-04-06T03:15:28.412Z,102259.20
2018-04-06T03:17:55.271Z,102258.31
2018-04-06T03:20:23.075Z,102266.97
2018-04-06T03:22:50.153Z,102264.58
2018-04-06T03:25:17.237Z,102265.92
2018-04-06T03:27:44.057Z,102264.08
2018-04-06T03:30:10.991Z,102255.05
2018-04-06T03:32:37.840Z,102253.80
2018-04-06T03:35:06.230Z,102246.16
2018-04-06T03:37:33.281Z,102241.09
2018-04-06T03:40:00.341Z,102234.67
2018-04-06T03:42:27.277Z,102235.03
2018-04-06T03:44:55.516Z,102228.38
2018-04-06T03:47:22.470Z,102237.24
2018-04-06T03:49:49.351Z,102233.40
2018-04-06T03:52:16.414Z,102239.73
2018-04-06T03:54:43.490Z,102244.80
2018-04-06T03:57:12.751Z,102233.42
2018-04-06T03:59:39.636Z,102231.16
2018-04-06T04:02:07.389Z,102231.17
2018-04-06T04:04:35.283Z,102227.50
2018-04-06T04:07:02.921Z,102229.21
2018-04-06T04:09:29.732Z,102226.49
2018-04-06T04:11:56.721Z,102192.84
2018-04-06T04:14:24.597Z,102226.52
2018-04-06T04:16:51.649Z,102228.15
2018-04-06T04:19:18.537Z,102220.41
2018-04-06T04:21:45.412Z,102228.16
2018-04-06T04:24:12.369Z,102231.42
2018-04-06T04:26:39.241Z,102215.75
2018-04-06T04:29:07.214Z,102202.59
2018-04-06T04:31:34.326Z,102206.87
2018-04-06T04:34:01.326Z,102207.17
2018-04-06T04:36:28.169Z,102196.13
2018-04-06T04:38:55.927Z,102195.80
2018-04-06T04:41:23.313Z,102184.19
2018-04-06T04:43:50.232Z,102182.41
2018-04-06T04:46:17.111Z,102178.73
2018-04-06T04:48:44.373Z,102173.25
2018-04-06T04:51:12.604Z,102178.00
2018-04-06T04:53:39.502Z,102175.48
2018-04-06T04:56:07.252Z,102170.70
2018-04-06T04:58:35.258Z,102166.44
2018-04-06T05:01:02.892Z,102166.92
2018-04-06T05:03:30.050Z,102155.81
2018-04-06T05:05:56.908Z,102155.10
2018-04-06T05:08:23.962Z,102149.06
2018-04-06T05:10:50.905Z,102141.52
2018-04-06T05:13:19.188Z,102146.56
2018-04-06T05:15:46.166Z,102147.09
2018-04-06T05:18:14.012Z,102139.39
2018-04-06T05:20:41.688Z,102140.77
2018-04-06T05:23:08.661Z,102137.51
2018-04-06T05:25:35.679Z,102142.02
2018-04-06T05:28:02.837Z,102131.11
2018-04-06T05:30:29.776Z,102131.84
2018-04-06T05:32:56.642Z,102134.77
2018-04-06T05:35:23.631Z,102139.39
2018-04-06T05:37:51.730Z,102140.67
2018-04-06T05:40:18.703Z,102139.36
2018-04-06T05:42:45.670Z,102131.01
2018-04-06T05:45:12.585Z,102119.95
2018-04-06T05:47:40.365Z,102123.05
2018-04-06T05:50:07.744Z,102117.53
2018-04-06T05:52:34.631Z,102114.55
2018-04-06T05:55:01.492Z,102128.15
2018-04-06T05:57:28.543Z,102124.02
2018-04-06T05:59:56.769Z,102126.62
2018-04-06T06:02:23.724Z,102136.19
2018-04-06T06:04:50.569Z,102131.60
2018-04-06T06:07:17.726Z,102135.78
2018-04-06T06:09:45.710Z,102142.91
2018-04-06T06:12:12.548Z,102149.27
2018-04-06T06:14:39.553Z,102146.48
2018-04-06T06:17:06.449Z,102140.33
2018-04-06T06:19:33.345Z,102141.70
2018-04-06T06:22:00.463Z,102139.94
2018-04-06T06:24:28.748Z,102140.20
2018-04-06T06:26:56.992Z,102142.93
2018-04-06T06:29:23.834Z,102143.12
2018-04-06T06:31:51.621Z,102149.84
2018-04-06T06:34:18.686Z,102139.48
2018-04-06T06:36:45.610Z,102147.31
2018-04-06T06:39:12.487Z,102148.76
2018-04-06T06:41:39.371Z,102150.06
2018-04-06T06:44:07.212Z,102144.80
2018-04-06T06:46:34.300Z,102142.14
2018-04-06T06:49:01.400Z,102149.31
2018-04-06T06:51:28.356Z,102145.48
2018-04-06T06:53:55.501Z,102139.41
2018-04-06T06:56:23.426Z,102140.64
2018-04-06T06:58:50.280Z,102140.00
2018-04-06T07:01:17.303Z,102130.48
2018-04-06T07:03:45.075Z,102129.95
2018-04-06T07:06:13.953Z,102134.55
2018-04-06T07:08:40.792Z,102127.17
2018-04-06T07:11:07.768Z,102122.81
2018-04-06T07:13:36.325Z,102114.52
2018-04-06T07:16:03.217Z,102115.04
2018-04-06T07:18:30.232Z,102110.47
2018-04-06T07:20:57.089Z,102105.06
2018-04-06T07:23:24.028Z,102096.62
2018-04-06T07:25:51.082Z,102081.78
2018-04-06T07:28:19.101Z,102086.12
2018-04-06T07:30:46.447Z,102095.18
2018-04-06T07:33:16.293Z,102090.30
2018-04-06T07:35:43.187Z,102089.45
2018-04-06T07:38:10.581Z,102098.02
2018-04-06T07:40:37.445Z,102098.95
2018-04-06T07:43:04.344Z,102097.13
2018-04-06T07:45:32.216Z,102095.30
2018-04-06T07:47:59.163Z,102095.30
2018-04-06T07:50:26.021Z,102087.02
2018-04-06T07:52:53.174Z,102095.01
2018-04-06T07:55:20.524Z,102091.30
2018-04-06T07:57:48.314Z,102092.26
2018-04-06T08:00:15.267Z,102080.08
2018-04-06T08:02:42.896Z,102087.56
2018-04-06T08:05:09.934Z,102083.48
2018-04-06T08:07:37.886Z,102097.70
2018-04-06T08:10:04.957Z,102097.34
2018-04-06T08:12:31.869Z,102088.23
2018-04-06T08:14:59.519Z,102076.00
2018-04-06T08:17:26.349Z,102072.07
2018-04-06T08:19:54.168Z,102073.11
2018-04-06T08:22:21.278Z,102065.20
2018-04-06T08:24:48.087Z,102062.31
2018-04-06T08:27:15.049Z,102056.08
2018-04-06T08:29:41.920Z,102049.89
2018-04-06T08:32:09.847Z,102054.94
2018-04-06T08:34:36.695Z,102056.39
2018-04-06T08:37:04.003Z,102041.83
2018-04-06T08:39:30.953Z,102032.92
2018-04-06T08:42:00.054Z,102039.80
2018-04-06T08:44:27.194Z,102041.58
2018-04-06T08:46:54.055Z,102036.78
2018-04-06T08:49:21.021Z,102029.39
2018-04-06T08:51:48.872Z,102030.89
2018-04-06T08:54:15.735Z,102032.48
2018-04-06T08:56:42.989Z,102032.63
2018-04-06T08:59:09.836Z,102030.63
2018-04-06T09:01:36.797Z,102022.10
2018-04-06T09:04:04.811Z,102019.33
2018-04-06T09:09:16.238Z,102018.34
2018-04-06T09:11:43.030Z,102017.45
2018-04-06T09:14:09.880Z,102021.86
2018-04-06T09:16:36.673Z,102014.15
2018-04-06T09:19:04.811Z,102003.63
2018-04-06T09:21:31.694Z,102005.45
2018-04-06T09:23:58.657Z,101997.77
2018-04-06T09:26:25.906Z,101998.91
2018-04-06T09:28:52.703Z,102003.03
2018-04-06T09:31:20.512Z,102015.61
2018-04-06T09:33:47.379Z,102004.42
2018-04-06T09:36:14.165Z,101994.61
2018-04-06T09:38:41.168Z,101996.41
2018-04-06T09:41:07.996Z,101990.88
2018-04-06T09:43:35.514Z,102003.76
2018-04-06T09:46:02.566Z,102008.48
2018-04-06T09:48:29.385Z,102002.27
2018-04-06T09:50:56.127Z,101992.42
2018-04-06T09:53:23.126Z,101996.31
2018-04-06T09:55:50.139Z,101967.67
2018-04-06T09:58:17.963Z,101970.30
2018-04-06T10:00:44.745Z,101960.02
2018-04-06T10:03:11.906Z,101953.56
2018-04-06T10:05:38.704Z,101943.09
2018-04-06T10:08:05.613Z,101941.04
2018-04-06T10:10:34.037Z,101925.19
2018-04-06T10:13:00.814Z,101923.12
2018-04-06T10:15:27.632Z,101919.84
2018-04-06T10:17:54.547Z,101925.84
2018-04-06T10:20:22.123Z,101921.11
2018-04-06T10:22:50.440Z,101920.88
2018-04-06T10:25:17.312Z,101903.16
2018-04-06T10:27:44.099Z,101902.58
2018-04-06T10:30:11.133Z,101894.06
2018-04-06T10:32:37.929Z,101889.61
2018-04-06T10:35:04.894Z,101883.16
2018-04-06T10:37:31.894Z,101886.30
2018-04-06T10:40:00.330Z,101882.03
2018-04-06T10:42:27.270Z,101892.47
2018-04-06T10:44:54.060Z,101884.87
2018-04-06T10:47:20.982Z,101876.38
2018-04-06T10:49:47.798Z,101878.02
2018-04-06T10:52:15.812Z,101883.80
2018-04-06T10:54:42.628Z,101879.92
2018-04-06T10:57:09.584Z,101880.58
2018-04-06T10:59:36.335Z,101871.98
2018-04-06T11:02:03.159Z,101858.01
2018-04-06T11:04:30.048Z,101856.67
2018-04-06T11:06:57.742Z,101863.25
2018-04-06T11:09:25.040Z,101857.63
2018-04-06T11:11:52.256Z,101857.75
2018-04-06T11:14:19.042Z,101853.75
2018-04-06T11:16:45.796Z,101847.05
2018-04-06T11:19:13.222Z,101833.10
2018-04-06T11:21:41.554Z,101823.42
2018-04-06T11:24:08.310Z,101818.72
2018-04-06T11:26:35.047Z,101810.44
2018-04-06T11:29:02.671Z,101809.55
2018-04-06T11:31:31.092Z,101804.41
2018-04-06T11:33:57.984Z,101806.95
2018-04-06T11:36:25.013Z,101794.23
2018-04-06T11:38:52.979Z,101805.50
2018-04-06T11:41:19.796Z,101803.15
2018-04-06T11:43:47.776Z,101798.20
2018-04-06T11:46:15.105Z,101797.64
2018-04-06T11:48:42.676Z,101789.48
2018-04-06T11:51:10.384Z,101791.30
2018-04-06T11:53:38.125Z,101774.47
2018-04-06T11:56:04.994Z,101782.58
2018-04-06T11:58:31.828Z,101782.18
2018-04-06T12:00:58.642Z,101765.53
2018-04-06T12:03:25.450Z,101757.16
2018-04-06T12:05:52.734Z,101748.73
2018-04-06T12:08:20.659Z,101734.93
2018-04-06T12:10:47.459Z,101746.02
2018-04-06T12:13:15.542Z,101732.47
2018-04-06T12:15:42.312Z,101727.39
2018-04-06T12:18:10.708Z,101723.16
2018-04-06T12:20:37.526Z,101722.23
2018-04-06T12:23:04.297Z,101712.80
2018-04-06T12:25:31.837Z,101721.64
2018-04-06T12:28:00.141Z,101717.78
2018-04-06T12:30:26.888Z,101713.73
2018-04-06T12:32:53.793Z,101710.29
2018-04-06T12:35:20.615Z,101708.22
2018-04-06T12:37:47.392Z,101710.69
2018-04-06T12:40:15.176Z,101712.21
2018-04-06T12:42:42.099Z,101702.34
2018-04-06T12:45:08.913Z,101691.64
2018-04-06T12:47:35.945Z,101691.48
2018-04-06T12:50:04.244Z,101681.81
2018-04-06T12:52:30.976Z,101679.22
2018-04-06T12:54:58.602Z,101674.41
2018-04-06T12:57:25.755Z,101677.32
2018-04-06T12:59:53.422Z,101667.48
2018-04-06T13:02:20.690Z,101664.65
2018-04-06T13:04:47.850Z,101660.84
2018-04-06T13:07:14.631Z,101639.14
2018-04-06T13:09:41.371Z,101641.21
2018-04-06T13:12:09.163Z,101642.79
2018-04-06T13:14:35.987Z,101645.91
2018-04-06T13:17:03.010Z,101647.55
2018-04-06T13:19:29.760Z,101646.16
2018-04-06T13:21:57.393Z,101633.33
2018-04-06T13:24:24.368Z,101626.31
2018-04-06T13:26:51.156Z,101610.95
2018-04-06T13:29:17.964Z,101606.01
2018-04-06T13:31:44.759Z,101604.44
2018-04-06T13:34:12.570Z,101597.72
2018-04-06T13:36:40.282Z,101593.48
2018-04-06T13:39:07.580Z,101590.56
2018-04-06T13:41:34.366Z,101581.73
2018-04-06T13:44:01.910Z,101564.94
2018-04-06T13:46:28.996Z,101570.43
2018-04-06T13:48:56.548Z,101564.26
2018-04-06T13:51:25.087Z,101568.93
2018-04-06T13:53:52.049Z,101559.70
2018-04-06T13:56:18.805Z,101557.78
2018-04-06T13:58:45.754Z,101545.05
2018-04-06T14:01:12.580Z,101549.91
2018-04-06T14:03:40.297Z,101547.53
2018-04-06T14:06:07.813Z,101544.88
2018-04-06T14:08:34.558Z,101540.74
2018-04-06T14:11:01.436Z,101544.95
2018-04-06T14:13:28.260Z,101544.83
2018-04-06T14:15:55.941Z,101542.36
2018-04-06T14:18:22.823Z,101545.66
2018-04-06T14:20:49.610Z,101536.54
2018-04-06T14:23:16.736Z,101534.99
2018-04-06T14:25:45.281Z,101524.09
2018-04-06T14:28:12.221Z,101533.66
2018-04-06T14:30:39.103Z,101523.66
2018-04-06T14:33:06.014Z,101524.70
2018-04-06T14:35:32.823Z,101515.75
2018-04-06T14:38:01.161Z,101516.86
2018-04-06T14:40:28.062Z,101514.44
2018-04-06T14:42:55.283Z,101506.28
2018-04-06T14:45:22.392Z,101488.16
2018-04-06T14:47:49.227Z,101498.31
2018-04-06T14:50:17.065Z,101493.11
2018-04-06T14:52:43.857Z,101492.13
2018-04-06T14:55:10.712Z,101477.14
2018-04-06T14:57:37.520Z,101496.72
2018-04-06T15:00:06.516Z,101491.44
2018-04-06T15:02:34.098Z,101486.36
2018-04-06T15:05:00.904Z,101476.62
2018-04-06T15:07:27.755Z,101475.26
2018-04-06T15:09:54.507Z,101474.83
2018-04-06T15:12:21.277Z,101465.93
2018-04-06T15:14:49.937Z,101460.30
2018-04-06T15:17:17.346Z,101453.45
2018-04-06T15:19:44.141Z,101447.00
2018-04-06T15:22:10.986Z,101442.06
2018-04-06T15:24:38.077Z,101448.01
2018-04-06T15:27:05.419Z,101438.20
2018-04-06T15:29:33.801Z,101439.61
2018-04-06T15:32:00.931Z,101420.59
2018-04-06T15:34:27.730Z,101424.84
2018-04-06T15:36:54.604Z,101418.41
2018-04-06T15:39:21.401Z,101417.34
2018-04-06T15:41:48.216Z,101415.09
2018-04-06T15:44:15.201Z,101413.08
2018-04-06T15:46:42.148Z,101396.47
2018-04-06T15:49:09.685Z,101394.64
2018-04-06T15:51:36.638Z,101390.31
2018-04-06T15:54:04.754Z,101396.22
2018-04-06T15:56:32.698Z,101396.17
2018-04-06T15:58:59.769Z,101384.75
2018-04-06T16:01:27.848Z,101382.00
2018-04-06T16:03:55.814Z,101379.92
2018-04-06T16:06:22.590Z,101372.00
2018-04-06T16:08:49.365Z,101368.84
2018-04-06T16:11:17.775Z,101367.95
2018-04-06T16:13:44.537Z,101353.30
2018-04-06T16:16:11.626Z,101352.19
2018-04-06T16:18:38.446Z,101347.72
2018-04-06T16:21:05.309Z,101341.75
2018-04-06T16:23:32.885Z,101346.80
2018-04-06T16:25:59.728Z,101344.28
2018-04-06T16:28:28.065Z,101340.78
2018-04-06T16:30:54.965Z,101342.30
2018-04-06T16:33:21.823Z,101346.30
2018-04-06T16:35:48.828Z,101343.42
2018-04-06T16:38:15.988Z,101351.84
2018-04-06T16:40:42.849Z,101355.92
2018-04-06T16:43:11.202Z,101346.19
2018-04-06T16:45:38.448Z,101339.97
2018-04-06T16:48:05.246Z,101336.34
2018-04-06T16:50:32.256Z,101333.79
2018-04-06T16:52:59.024Z,101335.47
2018-04-06T16:55:26.039Z,101333.04
2018-04-06T16:57:53.572Z,101325.20
2018-04-06T17:00:20.361Z,101319.36
2018-04-06T17:02:47.645Z,101320.19
2018-04-06T17:05:16.009Z,101315.75
2018-04-06T17:07:43.565Z,101311.03
2018-04-06T17:10:10.862Z,101314.84
2018-04-06T17:12:38.404Z,101305.20
2018-04-06T17:15:05.873Z,101311.05
2018-04-06T17:17:32.705Z,101302.44
2018-04-06T17:19:59.868Z,101303.66
2018-04-06T17:22:26.759Z,101298.19
2018-04-06T17:24:54.972Z,101307.16
2018-04-06T17:27:21.865Z,101303.72
2018-04-06T17:29:48.909Z,101298.88
2018-04-06T17:32:15.756Z,101311.00
2018-04-06T17:34:42.928Z,101303.66
2018-04-06T17:37:10.532Z,101304.63
2018-04-06T17:39:38.417Z,101304.70
2018-04-06T17:42:05.446Z,101303.30
2018-04-06T17:44:32.342Z,101306.66
2018-04-06T17:46:59.217Z,101305.22
2018-04-06T17:49:26.816Z,101297.36
2018-04-06T17:51:53.704Z,101295.18
2018-04-06T17:54:20.487Z,101292.02
2018-04-06T17:56:47.626Z,101296.23
2018-04-06T17:59:14.439Z,101289.94
2018-04-06T18:01:41.259Z,101291.98
2018-04-06T18:04:08.903Z,101288.88
2018-04-06T18:06:36.748Z,101290.43
2018-04-06T18:09:03.745Z,101283.48
2018-04-06T18:11:30.583Z,101291.62
2018-04-06T18:13:57.400Z,101289.66
2018-04-06T18:16:24.189Z,101274.35
2018-04-06T18:18:50.987Z,101285.45
2018-04-06T18:21:17.809Z,101280.54
2018-04-06T18:23:45.869Z,101281.66
2018-04-06T18:26:12.773Z,101279.27
2018-04-06T18:28:40.376Z,101284.03
2018-04-06T18:31:07.194Z,101279.75
2018-04-06T18:33:34.737Z,101269.53
2018-04-06T18:36:02.519Z,101280.22
2018-04-06T18:38:30.077Z,101288.17
2018-04-06T18:40:56.835Z,101295.13
2018-04-06T18:43:24.891Z,101295.48
2018-04-06T18:45:51.729Z,101290.09
2018-04-06T18:48:18.570Z,101297.60
2018-04-06T18:50:45.360Z,101296.95
2018-04-06T18:53:13.598Z,101302.14
2018-04-06T18:55:40.429Z,101306.44
2018-04-06T18:58:07.933Z,101309.25
2018-04-06T19:00:34.719Z,101314.30
2018-04-06T19:03:01.469Z,101320.35
2018-04-06T19:05:28.281Z,101312.22
2018-04-06T19:07:56.064Z,101319.92
2018-04-06T19:10:24.629Z,101316.08
2018-04-06T19:12:51.408Z,101324.57
2018-04-06T19:15:18.169Z,101333.11
2018-04-06T19:17:44.964Z,101336.14
2018-04-06T19:20:11.799Z,101335.28
2018-04-06T19:22:38.626Z,101327.28
2018-04-06T19:25:05.466Z,101323.03
2018-04-06T19:27:33.191Z,101324.40
2018-04-06T19:30:01.030Z,101327.03
2018-04-06T19:32:28.009Z,101325.41
2018-04-06T19:34:54.828Z,101330.23
2018-04-06T19:37:21.744Z,101329.73
2018-04-06T19:39:48.541Z,101326.16
2018-04-06T19:42:15.441Z,101319.93
2018-04-06T19:44:42.197Z,101320.57
2018-04-06T19:47:09.075Z,101318.80
2018-04-06T19:49:37.014Z,101313.38
2018-04-06T19:52:04.034Z,101301.75
2018-04-06T19:54:31.635Z,101306.95
2018-04-06T19:56:58.455Z,101299.84
2018-04-06T19:59:25.260Z,101306.52
2018-04-06T20:01:52.179Z,101308.28
2018-04-06T20:04:19.033Z,101301.39
2018-04-06T20:06:46.968Z,101295.16
2018-04-06T20:09:14.520Z,101289.68
2018-04-06T20:11:42.119Z,101296.41
2018-04-06T20:14:08.906Z,101295.76
2018-04-06T20:16:35.679Z,101287.34
2018-04-06T20:19:03.588Z,101285.94
2018-04-06T20:21:30.944Z,101271.76
2018-04-06T20:23:57.737Z,101279.55
2018-04-06T20:26:24.581Z,101271.12
2018-04-06T20:28:51.326Z,101272.65
2018-04-06T20:31:18.114Z,101275.02
2018-04-06T20:33:45.645Z,101271.25
2018-04-06T20:36:13.293Z,101262.90
2018-04-06T20:38:40.401Z,101257.92
2018-04-06T20:41:08.146Z,101265.62
2018-04-06T20:43:34.998Z,101254.61
2018-04-06T20:46:01.888Z,101257.20
2018-04-06T20:48:28.724Z,101238.02
2018-04-06T20:50:55.752Z,101244.53
2018-04-06T20:53:23.602Z,101235.64
2018-04-06T20:55:50.619Z,101233.23
2018-04-06T20:58:17.412Z,101231.34
2018-04-06T21:00:44.276Z,101242.47
2018-04-06T21:03:12.232Z,101243.14
2018-04-06T21:05:39.262Z,101237.39
2018-04-06T21:08:07.103Z,101236.77
2018-04-06T21:10:33.853Z,101230.37
2018-04-06T21:13:00.621Z,101223.38
2018-04-06T21:15:27.489Z,101230.04
2018-04-06T21:17:54.351Z,101224.50
2018-04-06T21:20:21.153Z,101227.56
2018-04-06T21:22:48.189Z,101224.81
2018-04-06T21:25:15.160Z,101222.88
2018-04-06T21:27:43.192Z,101226.30
2018-04-06T21:30:10.705Z,101224.34
2018-04-06T21:32:37.589Z,101220.81
2018-04-06T21:35:04.384Z,101223.14
2018-04-06T21:37:31.295Z,101221.36
2018-04-06T21:39:59.510Z,101226.03
2018-04-06T21:42:26.863Z,101229.55
2018-04-06T21:44:53.670Z,101235.62
2018-04-06T21:47:20.469Z,101239.26
2018-04-06T21:49:47.241Z,101239.76
2018-04-06T21:52:14.220Z,101240.20
2018-04-06T21:54:41.031Z,101244.08
2018-04-06T21:57:07.811Z,101235.23
2018-04-06T21:59:34.685Z,101244.42
2018-04-06T22:02:02.655Z,101241.36
2018-04-06T22:04:30.279Z,101234.87
2018-04-06T22:06:57.138Z,101236.54
2018-04-06T22:09:23.947Z,101235.73
2018-04-06T22:11:50.769Z,101239.92
2018-04-06T22:14:17.705Z,101234.64
2018-04-06T22:16:46.160Z,101233.31
2018-04-06T22:19:12.966Z,101234.09
2018-04-06T22:21:39.754Z,101232.23
2018-04-06T22:24:06.821Z,101234.53
2018-04-06T22:26:33.640Z,101234.20
2018-04-06T22:29:00.442Z,101231.88
2018-04-06T22:31:28.205Z,101233.34
2018-04-06T22:33:55.870Z,101238.44
2018-04-06T22:36:22.714Z,101232.48
2018-04-06T22:38:50.218Z,101241.44
2018-04-06T22:41:17.829Z,101233.89
2018-04-06T22:43:44.994Z,101244.66
2018-04-06T22:46:11.831Z,101236.92
2018-04-06T22:48:38.829Z,101240.29
2018-04-06T22:51:05.632Z,101236.30
2018-04-06T22:53:32.501Z,101240.08
2018-04-06T22:56:00.940Z,101238.75
2018-04-06T22:58:28.951Z,101233.12
2018-04-06T23:00:55.726Z,101235.94
2018-04-06T23:03:22.557Z,101235.64
2018-04-06T23:05:50.877Z,101239.77
2018-04-06T23:08:18.295Z,101237.10
2018-04-06T23:10:45.901Z,101238.27
2018-04-06T23:13:12.678Z,101236.48
2018-04-06T23:15:39.436Z,101229.10
2018-04-06T23:18:06.234Z,101225.55
2018-04-06T23:20:33.895Z,101228.00
2018-04-06T23:23:00.664Z,101225.77
2018-04-06T23:25:27.468Z,101227.57
2018-04-06T23:27:54.467Z,101231.16
2018-04-06T23:30:21.199Z,101217.34
2018-04-06T23:32:48.155Z,101223.19
2018-04-06T23:35:14.972Z,101225.38
2018-04-06T23:37:43.024Z,101226.81
2018-04-06T23:40:10.012Z,101227.22
2018-04-06T23:42:36.785Z,101226.66
2018-04-06T23:45:03.843Z,101221.94
2018-04-06T23:47:31.888Z,101220.77
2018-04-06T23:49:58.999Z,101224.89
2018-04-06T23:52:25.787Z,101218.31
2018-04-06T23:54:52.667Z,101219.98
2018-04-06T23:57:19.568Z,101222.64
2018-04-06T23:59:47.256Z,101213.37
